sensor_id;sensor_type;location;lat;lon;timestamp;P1;durP1;ratioP1;P2;durP2;ratioP2
71317;SDS011;59106;44.706;18.310;2024-02-23T00:01:29;63.67;;;34.70;;
71317;SDS011;59106;44.706;18.310;2024-02-23T00:03:55;63.77;;;33.70;;
71317;SDS011;59106;44.706;18.310;2024-02-23T00:06:21;69.22;;;36.70;;
71317;SDS011;59106;44.706;18.310;2024-02-23T00:08:49;56.25;;;30.33;;
71317;SDS011;59106;44.706;18.310;2024-02-23T00:11:15;50.60;;;28.13;;
71317;SDS011;59106;44.706;18.310;2024-02-23T00:13:41;50.10;;;27.92;;
71317;SDS011;59106;44.706;18.310;2024-02-23T00:16:07;46.63;;;26.55;;
71317;SDS011;59106;44.706;18.310;2024-02-23T00:18:33;47.60;;;25.25;;
71317;SDS011;59106;44.706;18.310;2024-02-23T00:20:58;45.08;;;24.27;;
71317;SDS011;59106;44.706;18.310;2024-02-23T00:23:24;40.97;;;21.93;;
71317;SDS011;59106;44.706;18.310;2024-02-23T00:25:51;48.53;;;24.88;;
71317;SDS011;59106;44.706;18.310;2024-02-23T00:28:17;43.47;;;23.52;;
71317;SDS011;59106;44.706;18.310;2024-02-23T00:30:43;43.43;;;23.43;;
71317;SDS011;59106;44.706;18.310;2024-02-23T00:33:09;46.67;;;23.73;;
71317;SDS011;59106;44.706;18.310;2024-02-23T00:35:36;44.60;;;24.35;;
71317;SDS011;59106;44.706;18.310;2024-02-23T00:38:02;46.53;;;24.87;;
71317;SDS011;59106;44.706;18.310;2024-02-23T00:40:27;43.72;;;22.55;;
71317;SDS011;59106;44.706;18.310;2024-02-23T00:42:54;39.13;;;20.23;;
71317;SDS011;59106;44.706;18.310;2024-02-23T00:45:20;43.08;;;22.10;;
71317;SDS011;59106;44.706;18.310;2024-02-23T00:47:47;40.67;;;22.02;;
71317;SDS011;59106;44.706;18.310;2024-02-23T00:50:13;50.42;;;24.30;;
71317;SDS011;59106;44.706;18.310;2024-02-23T00:52:40;50.00;;;23.30;;
71317;SDS011;59106;44.706;18.310;2024-02-23T00:55:06;50.03;;;24.73;;
71317;SDS011;59106;44.706;18.310;2024-02-23T00:57:34;35.95;;;18.75;;
71317;SDS011;59106;44.706;18.310;2024-02-23T01:00:01;26.27;;;13.40;;
71317;SDS011;59106;44.706;18.310;2024-02-23T01:02:29;35.83;;;19.90;;
71317;SDS011;59106;44.706;18.310;2024-02-23T01:04:55;45.23;;;22.27;;
71317;SDS011;59106;44.706;18.310;2024-02-23T01:07:22;44.10;;;24.42;;
71317;SDS011;59106;44.706;18.310;2024-02-23T01:09:48;42.95;;;23.15;;
71317;SDS011;59106;44.706;18.310;2024-02-23T01:12:14;36.83;;;20.08;;
71317;SDS011;59106;44.706;18.310;2024-02-23T01:14:40;29.27;;;15.80;;
71317;SDS011;59106;44.706;18.310;2024-02-23T01:17:06;23.83;;;13.27;;
71317;SDS011;59106;44.706;18.310;2024-02-23T01:19:32;25.58;;;13.40;;
71317;SDS011;59106;44.706;18.310;2024-02-23T01:21:58;25.70;;;14.00;;
71317;SDS011;59106;44.706;18.310;2024-02-23T01:24:27;34.53;;;19.65;;
71317;SDS011;59106;44.706;18.310;2024-02-23T01:26:55;35.42;;;19.70;;
71317;SDS011;59106;44.706;18.310;2024-02-23T01:29:21;31.73;;;18.95;;
71317;SDS011;59106;44.706;18.310;2024-02-23T01:31:48;22.17;;;11.98;;
71317;SDS011;59106;44.706;18.310;2024-02-23T01:34:14;24.42;;;13.23;;
71317;SDS011;59106;44.706;18.310;2024-02-23T01:36:40;26.55;;;13.98;;
71317;SDS011;59106;44.706;18.310;2024-02-23T01:39:06;25.07;;;13.87;;
71317;SDS011;59106;44.706;18.310;2024-02-23T01:41:33;32.47;;;17.37;;
71317;SDS011;59106;44.706;18.310;2024-02-23T01:43:59;29.98;;;17.17;;
71317;SDS011;59106;44.706;18.310;2024-02-23T01:46:25;24.85;;;13.85;;
71317;SDS011;59106;44.706;18.310;2024-02-23T01:48:51;23.10;;;13.30;;
71317;SDS011;59106;44.706;18.310;2024-02-23T01:51:18;24.67;;;13.88;;
71317;SDS011;59106;44.706;18.310;2024-02-23T01:53:44;19.98;;;11.80;;
71317;SDS011;59106;44.706;18.310;2024-02-23T01:56:10;24.02;;;12.35;;
71317;SDS011;59106;44.706;18.310;2024-02-23T01:58:37;24.15;;;11.85;;
71317;SDS011;59106;44.706;18.310;2024-02-23T02:01:04;23.63;;;12.43;;
71317;SDS011;59106;44.706;18.310;2024-02-23T02:03:30;19.87;;;10.77;;
71317;SDS011;59106;44.706;18.310;2024-02-23T02:05:56;17.35;;;10.00;;
71317;SDS011;59106;44.706;18.310;2024-02-23T02:11:48;17.10;;;9.20;;
71317;SDS011;59106;44.706;18.310;2024-02-23T02:14:14;16.75;;;9.43;;
71317;SDS011;59106;44.706;18.310;2024-02-23T02:16:40;16.07;;;8.80;;
71317;SDS011;59106;44.706;18.310;2024-02-23T02:19:06;14.43;;;7.63;;
71317;SDS011;59106;44.706;18.310;2024-02-23T02:21:32;11.45;;;6.47;;
71317;SDS011;59106;44.706;18.310;2024-02-23T02:23:59;11.18;;;5.80;;
71317;SDS011;59106;44.706;18.310;2024-02-23T02:26:25;12.00;;;6.27;;
71317;SDS011;59106;44.706;18.310;2024-02-23T02:28:51;16.48;;;7.53;;
71317;SDS011;59106;44.706;18.310;2024-02-23T02:31:18;11.32;;;6.13;;
71317;SDS011;59106;44.706;18.310;2024-02-23T02:33:44;10.60;;;6.20;;
71317;SDS011;59106;44.706;18.310;2024-02-23T02:36:10;10.43;;;5.78;;
71317;SDS011;59106;44.706;18.310;2024-02-23T02:38:37;10.25;;;5.82;;
71317;SDS011;59106;44.706;18.310;2024-02-23T02:41:03;11.25;;;5.97;;
71317;SDS011;59106;44.706;18.310;2024-02-23T02:43:30;12.53;;;7.17;;
71317;SDS011;59106;44.706;18.310;2024-02-23T02:45:56;13.65;;;7.80;;
71317;SDS011;59106;44.706;18.310;2024-02-23T02:48:23;15.43;;;8.38;;
71317;SDS011;59106;44.706;18.310;2024-02-23T02:50:48;15.90;;;8.60;;
71317;SDS011;59106;44.706;18.310;2024-02-23T02:53:15;14.80;;;8.20;;
71317;SDS011;59106;44.706;18.310;2024-02-23T02:55:42;14.27;;;8.45;;
71317;SDS011;59106;44.706;18.310;2024-02-23T02:58:08;15.75;;;8.82;;
71317;SDS011;59106;44.706;18.310;2024-02-23T03:00:34;14.48;;;8.32;;
71317;SDS011;59106;44.706;18.310;2024-02-23T03:03:00;15.07;;;8.68;;
71317;SDS011;59106;44.706;18.310;2024-02-23T03:05:26;15.93;;;8.80;;
71317;SDS011;59106;44.706;18.310;2024-02-23T03:07:52;15.70;;;8.10;;
71317;SDS011;59106;44.706;18.310;2024-02-23T03:10:18;14.63;;;8.20;;
71317;SDS011;59106;44.706;18.310;2024-02-23T03:12:44;14.40;;;8.00;;
71317;SDS011;59106;44.706;18.310;2024-02-23T03:15:10;14.77;;;8.37;;
71317;SDS011;59106;44.706;18.310;2024-02-23T03:17:36;14.93;;;9.45;;
71317;SDS011;59106;44.706;18.310;2024-02-23T03:20:02;20.60;;;12.35;;
71317;SDS011;59106;44.706;18.310;2024-02-23T03:22:31;15.05;;;9.48;;
71317;SDS011;59106;44.706;18.310;2024-02-23T03:24:57;15.45;;;9.00;;
71317;SDS011;59106;44.706;18.310;2024-02-23T03:27:29;16.45;;;8.90;;
71317;SDS011;59106;44.706;18.310;2024-02-23T03:29:55;15.43;;;9.20;;
71317;SDS011;59106;44.706;18.310;2024-02-23T03:32:21;16.27;;;9.55;;
71317;SDS011;59106;44.706;18.310;2024-02-23T03:34:46;19.08;;;10.40;;
71317;SDS011;59106;44.706;18.310;2024-02-23T03:37:12;17.20;;;9.80;;
71317;SDS011;59106;44.706;18.310;2024-02-23T03:39:38;19.95;;;10.98;;
71317;SDS011;59106;44.706;18.310;2024-02-23T03:42:04;18.30;;;10.38;;
71317;SDS011;59106;44.706;18.310;2024-02-23T03:44:30;19.00;;;10.30;;
71317;SDS011;59106;44.706;18.310;2024-02-23T03:46:57;17.90;;;10.40;;
71317;SDS011;59106;44.706;18.310;2024-02-23T03:49:23;16.55;;;9.80;;
71317;SDS011;59106;44.706;18.310;2024-02-23T03:51:49;21.92;;;11.93;;
71317;SDS011;59106;44.706;18.310;2024-02-23T03:54:15;23.77;;;12.07;;
71317;SDS011;59106;44.706;18.310;2024-02-23T03:56:41;16.80;;;9.30;;
71317;SDS011;59106;44.706;18.310;2024-02-23T03:59:07;17.00;;;9.77;;
71317;SDS011;59106;44.706;18.310;2024-02-23T04:01:37;16.50;;;9.68;;
71317;SDS011;59106;44.706;18.310;2024-02-23T04:04:03;25.63;;;10.40;;
71317;SDS011;59106;44.706;18.310;2024-02-23T04:06:29;17.70;;;9.65;;
71317;SDS011;59106;44.706;18.310;2024-02-23T04:08:55;17.37;;;9.10;;
71317;SDS011;59106;44.706;18.310;2024-02-23T04:11:21;15.95;;;8.82;;
71317;SDS011;59106;44.706;18.310;2024-02-23T04:13:47;22.98;;;10.32;;
71317;SDS011;59106;44.706;18.310;2024-02-23T04:16:13;17.88;;;9.13;;
71317;SDS011;59106;44.706;18.310;2024-02-23T04:18:39;15.03;;;9.10;;
71317;SDS011;59106;44.706;18.310;2024-02-23T04:21:05;17.70;;;10.27;;
71317;SDS011;59106;44.706;18.310;2024-02-23T04:23:31;18.88;;;10.93;;
71317;SDS011;59106;44.706;18.310;2024-02-23T04:25:58;20.38;;;11.77;;
71317;SDS011;59106;44.706;18.310;2024-02-23T04:28:24;22.33;;;12.67;;
71317;SDS011;59106;44.706;18.310;2024-02-23T04:30:52;20.83;;;11.43;;
71317;SDS011;59106;44.706;18.310;2024-02-23T04:33:18;23.35;;;11.57;;
71317;SDS011;59106;44.706;18.310;2024-02-23T04:35:44;24.90;;;14.20;;
71317;SDS011;59106;44.706;18.310;2024-02-23T04:38:09;23.27;;;13.17;;
71317;SDS011;59106;44.706;18.310;2024-02-23T04:40:35;19.23;;;11.00;;
71317;SDS011;59106;44.706;18.310;2024-02-23T04:43:01;22.77;;;11.23;;
71317;SDS011;59106;44.706;18.310;2024-02-23T04:45:28;14.93;;;7.90;;
71317;SDS011;59106;44.706;18.310;2024-02-23T04:47:54;14.53;;;6.83;;
71317;SDS011;59106;44.706;18.310;2024-02-23T04:50:20;13.20;;;7.10;;
71317;SDS011;59106;44.706;18.310;2024-02-23T04:52:46;20.95;;;11.73;;
71317;SDS011;59106;44.706;18.310;2024-02-23T04:55:12;20.67;;;12.00;;
71317;SDS011;59106;44.706;18.310;2024-02-23T04:57:37;18.20;;;10.43;;
71317;SDS011;59106;44.706;18.310;2024-02-23T05:00:04;15.55;;;9.00;;
71317;SDS011;59106;44.706;18.310;2024-02-23T05:02:33;13.80;;;8.20;;
71317;SDS011;59106;44.706;18.310;2024-02-23T05:05:02;12.90;;;6.60;;
71317;SDS011;59106;44.706;18.310;2024-02-23T05:07:32;12.70;;;6.75;;
71317;SDS011;59106;44.706;18.310;2024-02-23T05:09:58;10.03;;;5.60;;
71317;SDS011;59106;44.706;18.310;2024-02-23T05:12:24;12.73;;;6.40;;
71317;SDS011;59106;44.706;18.310;2024-02-23T05:14:50;12.00;;;6.72;;
71317;SDS011;59106;44.706;18.310;2024-02-23T05:17:16;13.03;;;7.20;;
71317;SDS011;59106;44.706;18.310;2024-02-23T05:19:43;13.07;;;6.95;;
71317;SDS011;59106;44.706;18.310;2024-02-23T05:22:08;24.98;;;10.27;;
71317;SDS011;59106;44.706;18.310;2024-02-23T05:24:34;15.05;;;7.95;;
71317;SDS011;59106;44.706;18.310;2024-02-23T05:27:00;22.20;;;10.30;;
71317;SDS011;59106;44.706;18.310;2024-02-23T05:29:28;22.13;;;10.27;;
71317;SDS011;59106;44.706;18.310;2024-02-23T05:31:54;21.33;;;9.90;;
71317;SDS011;59106;44.706;18.310;2024-02-23T05:34:20;17.97;;;9.10;;
71317;SDS011;59106;44.706;18.310;2024-02-23T05:36:46;25.08;;;11.98;;
71317;SDS011;59106;44.706;18.310;2024-02-23T05:39:13;25.92;;;12.50;;
71317;SDS011;59106;44.706;18.310;2024-02-23T05:41:41;59.08;;;30.25;;
71317;SDS011;59106;44.706;18.310;2024-02-23T05:44:07;44.22;;;29.35;;
71317;SDS011;59106;44.706;18.310;2024-02-23T05:46:33;45.77;;;30.17;;
71317;SDS011;59106;44.706;18.310;2024-02-23T05:48:59;30.50;;;18.05;;
71317;SDS011;59106;44.706;18.310;2024-02-23T05:51:27;33.17;;;19.30;;
71317;SDS011;59106;44.706;18.310;2024-02-23T05:53:54;29.00;;;14.65;;
71317;SDS011;59106;44.706;18.310;2024-02-23T05:56:20;39.70;;;22.77;;
71317;SDS011;59106;44.706;18.310;2024-02-23T05:58:47;42.72;;;23.52;;
71317;SDS011;59106;44.706;18.310;2024-02-23T06:01:13;56.83;;;28.77;;
71317;SDS011;59106;44.706;18.310;2024-02-23T06:03:39;36.28;;;20.27;;
71317;SDS011;59106;44.706;18.310;2024-02-23T06:06:08;35.20;;;18.92;;
71317;SDS011;59106;44.706;18.310;2024-02-23T06:08:35;23.60;;;12.77;;
71317;SDS011;59106;44.706;18.310;2024-02-23T06:11:01;22.37;;;11.10;;
71317;SDS011;59106;44.706;18.310;2024-02-23T06:13:29;31.83;;;16.50;;
71317;SDS011;59106;44.706;18.310;2024-02-23T06:15:55;37.97;;;19.83;;
71317;SDS011;59106;44.706;18.310;2024-02-23T06:18:22;24.73;;;12.70;;
71317;SDS011;59106;44.706;18.310;2024-02-23T06:20:48;39.13;;;21.17;;
71317;SDS011;59106;44.706;18.310;2024-02-23T06:23:15;41.05;;;20.42;;
71317;SDS011;59106;44.706;18.310;2024-02-23T06:25:41;29.08;;;16.98;;
71317;SDS011;59106;44.706;18.310;2024-02-23T06:28:07;36.15;;;17.30;;
71317;SDS011;59106;44.706;18.310;2024-02-23T06:30:33;30.48;;;17.63;;
71317;SDS011;59106;44.706;18.310;2024-02-23T06:32:59;34.20;;;19.00;;
71317;SDS011;59106;44.706;18.310;2024-02-23T06:35:24;35.47;;;20.40;;
71317;SDS011;59106;44.706;18.310;2024-02-23T06:37:50;19.80;;;10.88;;
71317;SDS011;59106;44.706;18.310;2024-02-23T06:40:16;15.73;;;9.07;;
71317;SDS011;59106;44.706;18.310;2024-02-23T06:42:44;18.02;;;10.23;;
71317;SDS011;59106;44.706;18.310;2024-02-23T06:45:09;20.67;;;10.55;;
71317;SDS011;59106;44.706;18.310;2024-02-23T06:47:35;32.50;;;18.52;;
71317;SDS011;59106;44.706;18.310;2024-02-23T06:50:01;25.97;;;14.20;;
71317;SDS011;59106;44.706;18.310;2024-02-23T06:52:29;29.13;;;15.20;;
71317;SDS011;59106;44.706;18.310;2024-02-23T06:54:55;31.50;;;17.40;;
71317;SDS011;59106;44.706;18.310;2024-02-23T06:57:21;37.17;;;21.02;;
71317;SDS011;59106;44.706;18.310;2024-02-23T06:59:48;31.80;;;17.05;;
71317;SDS011;59106;44.706;18.310;2024-02-23T07:02:15;19.45;;;10.20;;
71317;SDS011;59106;44.706;18.310;2024-02-23T07:04:41;18.85;;;10.57;;
71317;SDS011;59106;44.706;18.310;2024-02-23T07:07:07;19.52;;;11.02;;
71317;SDS011;59106;44.706;18.310;2024-02-23T07:09:34;13.18;;;6.43;;
71317;SDS011;59106;44.706;18.310;2024-02-23T07:12:01;17.67;;;9.50;;
71317;SDS011;59106;44.706;18.310;2024-02-23T07:14:30;19.05;;;11.13;;
71317;SDS011;59106;44.706;18.310;2024-02-23T07:16:56;20.02;;;11.05;;
71317;SDS011;59106;44.706;18.310;2024-02-23T07:19:22;16.67;;;8.73;;
71317;SDS011;59106;44.706;18.310;2024-02-23T07:21:48;16.73;;;9.45;;
71317;SDS011;59106;44.706;18.310;2024-02-23T07:24:14;19.53;;;11.27;;
71317;SDS011;59106;44.706;18.310;2024-02-23T07:26:45;17.15;;;10.00;;
71317;SDS011;59106;44.706;18.310;2024-02-23T07:29:11;20.73;;;10.82;;
71317;SDS011;59106;44.706;18.310;2024-02-23T07:31:37;19.08;;;10.98;;
71317;SDS011;59106;44.706;18.310;2024-02-23T07:34:02;22.85;;;11.77;;
71317;SDS011;59106;44.706;18.310;2024-02-23T07:36:28;24.20;;;13.93;;
71317;SDS011;59106;44.706;18.310;2024-02-23T07:38:55;38.72;;;21.55;;
71317;SDS011;59106;44.706;18.310;2024-02-23T07:41:23;34.72;;;19.70;;
71317;SDS011;59106;44.706;18.310;2024-02-23T07:43:57;34.83;;;20.35;;
71317;SDS011;59106;44.706;18.310;2024-02-23T07:46:23;39.28;;;22.58;;
71317;SDS011;59106;44.706;18.310;2024-02-23T07:48:50;55.93;;;31.93;;
71317;SDS011;59106;44.706;18.310;2024-02-23T07:51:16;34.70;;;20.10;;
71317;SDS011;59106;44.706;18.310;2024-02-23T07:53:42;39.43;;;22.67;;
71317;SDS011;59106;44.706;18.310;2024-02-23T07:56:08;31.50;;;18.17;;
71317;SDS011;59106;44.706;18.310;2024-02-23T07:58:34;38.53;;;21.75;;
71317;SDS011;59106;44.706;18.310;2024-02-23T08:01:01;37.17;;;22.27;;
71317;SDS011;59106;44.706;18.310;2024-02-23T08:03:26;41.08;;;21.25;;
71317;SDS011;59106;44.706;18.310;2024-02-23T08:05:53;25.92;;;12.30;;
71317;SDS011;59106;44.706;18.310;2024-02-23T08:08:18;38.20;;;21.83;;
71317;SDS011;59106;44.706;18.310;2024-02-23T08:10:45;19.73;;;9.98;;
71317;SDS011;59106;44.706;18.310;2024-02-23T08:13:11;15.35;;;8.52;;
71317;SDS011;59106;44.706;18.310;2024-02-23T08:15:37;23.25;;;11.27;;
71317;SDS011;59106;44.706;18.310;2024-02-23T08:18:03;17.27;;;10.40;;
71317;SDS011;59106;44.706;18.310;2024-02-23T08:20:29;19.88;;;11.02;;
71317;SDS011;59106;44.706;18.310;2024-02-23T08:22:55;13.75;;;7.75;;
71317;SDS011;59106;44.706;18.310;2024-02-23T08:25:21;12.80;;;7.38;;
71317;SDS011;59106;44.706;18.310;2024-02-23T08:27:47;17.40;;;9.70;;
71317;SDS011;59106;44.706;18.310;2024-02-23T08:30:14;12.57;;;6.53;;
71317;SDS011;59106;44.706;18.310;2024-02-23T08:32:40;16.88;;;8.90;;
71317;SDS011;59106;44.706;18.310;2024-02-23T08:35:06;13.53;;;6.83;;
71317;SDS011;59106;44.706;18.310;2024-02-23T08:37:33;12.70;;;6.20;;
71317;SDS011;59106;44.706;18.310;2024-02-23T08:39:59;13.73;;;6.85;;
71317;SDS011;59106;44.706;18.310;2024-02-23T08:42:26;27.88;;;15.52;;
71317;SDS011;59106;44.706;18.310;2024-02-23T08:44:52;20.35;;;11.57;;
71317;SDS011;59106;44.706;18.310;2024-02-23T08:47:19;16.80;;;8.82;;
71317;SDS011;59106;44.706;18.310;2024-02-23T08:49:46;12.20;;;5.82;;
71317;SDS011;59106;44.706;18.310;2024-02-23T08:52:15;12.20;;;6.30;;
71317;SDS011;59106;44.706;18.310;2024-02-23T08:54:47;13.40;;;7.40;;
71317;SDS011;59106;44.706;18.310;2024-02-23T08:57:13;17.43;;;8.33;;
71317;SDS011;59106;44.706;18.310;2024-02-23T08:59:43;22.80;;;12.17;;
71317;SDS011;59106;44.706;18.310;2024-02-23T09:02:08;19.70;;;10.75;;
71317;SDS011;59106;44.706;18.310;2024-02-23T09:04:36;21.85;;;12.57;;
71317;SDS011;59106;44.706;18.310;2024-02-23T09:07:02;15.48;;;8.68;;
71317;SDS011;59106;44.706;18.310;2024-02-23T09:09:29;15.77;;;8.55;;
71317;SDS011;59106;44.706;18.310;2024-02-23T09:11:55;15.93;;;9.50;;
71317;SDS011;59106;44.706;18.310;2024-02-23T09:14:21;16.35;;;8.15;;
71317;SDS011;59106;44.706;18.310;2024-02-23T09:16:47;13.38;;;7.07;;
71317;SDS011;59106;44.706;18.310;2024-02-23T09:19:16;14.25;;;8.00;;
71317;SDS011;59106;44.706;18.310;2024-02-23T09:21:42;14.15;;;8.40;;
71317;SDS011;59106;44.706;18.310;2024-02-23T09:24:08;14.68;;;7.10;;
71317;SDS011;59106;44.706;18.310;2024-02-23T09:26:34;32.50;;;21.30;;
71317;SDS011;59106;44.706;18.310;2024-02-23T09:29:01;13.73;;;6.40;;
71317;SDS011;59106;44.706;18.310;2024-02-23T09:31:30;14.63;;;6.97;;
71317;SDS011;59106;44.706;18.310;2024-02-23T09:33:57;10.63;;;5.10;;
71317;SDS011;59106;44.706;18.310;2024-02-23T09:36:23;12.63;;;6.80;;
71317;SDS011;59106;44.706;18.310;2024-02-23T09:38:50;12.25;;;6.30;;
71317;SDS011;59106;44.706;18.310;2024-02-23T09:41:19;10.38;;;5.10;;
71317;SDS011;59106;44.706;18.310;2024-02-23T09:43:46;10.13;;;5.60;;
71317;SDS011;59106;44.706;18.310;2024-02-23T09:46:13;12.65;;;7.70;;
71317;SDS011;59106;44.706;18.310;2024-02-23T09:48:40;20.93;;;10.67;;
71317;SDS011;59106;44.706;18.310;2024-02-23T09:51:07;11.63;;;6.20;;
71317;SDS011;59106;44.706;18.310;2024-02-23T09:53:34;12.80;;;6.95;;
71317;SDS011;59106;44.706;18.310;2024-02-23T09:56:02;15.23;;;7.18;;
71317;SDS011;59106;44.706;18.310;2024-02-23T09:58:29;11.18;;;5.93;;
71317;SDS011;59106;44.706;18.310;2024-02-23T10:00:57;10.15;;;4.88;;
71317;SDS011;59106;44.706;18.310;2024-02-23T10:03:27;12.68;;;6.55;;
71317;SDS011;59106;44.706;18.310;2024-02-23T10:05:54;12.88;;;7.03;;
71317;SDS011;59106;44.706;18.310;2024-02-23T10:08:20;15.00;;;9.00;;
71317;SDS011;59106;44.706;18.310;2024-02-23T10:10:46;13.37;;;8.53;;
71317;SDS011;59106;44.706;18.310;2024-02-23T10:13:13;12.48;;;6.93;;
71317;SDS011;59106;44.706;18.310;2024-02-23T10:15:39;16.17;;;9.25;;
71317;SDS011;59106;44.706;18.310;2024-02-23T10:18:05;20.73;;;12.48;;
71317;SDS011;59106;44.706;18.310;2024-02-23T10:20:30;20.00;;;11.57;;
71317;SDS011;59106;44.706;18.310;2024-02-23T10:22:56;18.23;;;10.32;;
71317;SDS011;59106;44.706;18.310;2024-02-23T10:25:22;13.25;;;6.95;;
71317;SDS011;59106;44.706;18.310;2024-02-23T10:27:49;14.20;;;7.82;;
71317;SDS011;59106;44.706;18.310;2024-02-23T10:30:14;17.77;;;8.45;;
71317;SDS011;59106;44.706;18.310;2024-02-23T10:32:41;9.90;;;5.50;;
71317;SDS011;59106;44.706;18.310;2024-02-23T10:35:09;13.02;;;7.15;;
71317;SDS011;59106;44.706;18.310;2024-02-23T10:37:36;19.00;;;10.43;;
71317;SDS011;59106;44.706;18.310;2024-02-23T10:40:02;14.55;;;8.02;;
71317;SDS011;59106;44.706;18.310;2024-02-23T10:42:30;15.07;;;7.90;;
71317;SDS011;59106;44.706;18.310;2024-02-23T10:44:58;13.13;;;6.80;;
71317;SDS011;59106;44.706;18.310;2024-02-23T10:47:28;20.53;;;10.17;;
71317;SDS011;59106;44.706;18.310;2024-02-23T10:49:54;17.30;;;10.73;;
71317;SDS011;59106;44.706;18.310;2024-02-23T10:52:21;11.98;;;6.43;;
71317;SDS011;59106;44.706;18.310;2024-02-23T10:54:49;11.57;;;6.50;;
71317;SDS011;59106;44.706;18.310;2024-02-23T10:57:15;11.37;;;6.23;;
71317;SDS011;59106;44.706;18.310;2024-02-23T10:59:44;30.00;;;15.40;;
71317;SDS011;59106;44.706;18.310;2024-02-23T11:02:12;12.90;;;7.32;;
71317;SDS011;59106;44.706;18.310;2024-02-23T11:04:41;14.50;;;7.95;;
71317;SDS011;59106;44.706;18.310;2024-02-23T11:07:13;12.38;;;7.00;;
71317;SDS011;59106;44.706;18.310;2024-02-23T11:09:38;13.90;;;7.60;;
71317;SDS011;59106;44.706;18.310;2024-02-23T11:12:06;16.90;;;8.98;;
71317;SDS011;59106;44.706;18.310;2024-02-23T11:14:32;19.65;;;10.38;;
71317;SDS011;59106;44.706;18.310;2024-02-23T11:16:58;17.27;;;9.27;;
71317;SDS011;59106;44.706;18.310;2024-02-23T11:19:35;16.05;;;9.32;;
71317;SDS011;59106;44.706;18.310;2024-02-23T11:22:02;19.60;;;9.60;;
71317;SDS011;59106;44.706;18.310;2024-02-23T11:24:28;13.73;;;7.40;;
71317;SDS011;59106;44.706;18.310;2024-02-23T11:26:58;13.95;;;8.30;;
71317;SDS011;59106;44.706;18.310;2024-02-23T11:29:27;10.57;;;5.88;;
71317;SDS011;59106;44.706;18.310;2024-02-23T11:31:55;16.58;;;8.93;;
71317;SDS011;59106;44.706;18.310;2024-02-23T11:34:26;13.88;;;7.65;;
71317;SDS011;59106;44.706;18.310;2024-02-23T11:36:52;15.13;;;8.57;;
71317;SDS011;59106;44.706;18.310;2024-02-23T11:39:19;25.17;;;13.40;;
71317;SDS011;59106;44.706;18.310;2024-02-23T11:41:47;19.38;;;11.20;;
71317;SDS011;59106;44.706;18.310;2024-02-23T11:44:14;32.10;;;15.70;;
71317;SDS011;59106;44.706;18.310;2024-02-23T11:46:40;14.25;;;7.50;;
71317;SDS011;59106;44.706;18.310;2024-02-23T11:49:07;27.17;;;17.93;;
71317;SDS011;59106;44.706;18.310;2024-02-23T11:51:33;12.95;;;6.57;;
71317;SDS011;59106;44.706;18.310;2024-02-23T11:53:59;20.33;;;13.25;;
71317;SDS011;59106;44.706;18.310;2024-02-23T11:56:26;22.08;;;12.82;;
71317;SDS011;59106;44.706;18.310;2024-02-23T11:58:53;26.60;;;13.17;;
71317;SDS011;59106;44.706;18.310;2024-02-23T12:01:19;15.73;;;9.25;;
71317;SDS011;59106;44.706;18.310;2024-02-23T12:03:45;15.50;;;9.13;;
71317;SDS011;59106;44.706;18.310;2024-02-23T12:06:11;16.17;;;9.90;;
71317;SDS011;59106;44.706;18.310;2024-02-23T12:08:41;16.90;;;10.23;;
71317;SDS011;59106;44.706;18.310;2024-02-23T12:11:10;12.68;;;7.32;;
71317;SDS011;59106;44.706;18.310;2024-02-23T12:13:36;18.92;;;9.20;;
71317;SDS011;59106;44.706;18.310;2024-02-23T12:16:03;17.60;;;9.70;;
71317;SDS011;59106;44.706;18.310;2024-02-23T12:18:29;22.55;;;12.70;;
71317;SDS011;59106;44.706;18.310;2024-02-23T12:21:02;22.58;;;11.70;;
71317;SDS011;59106;44.706;18.310;2024-02-23T12:23:39;26.65;;;12.45;;
71317;SDS011;59106;44.706;18.310;2024-02-23T12:26:05;26.43;;;11.93;;
71317;SDS011;59106;44.706;18.310;2024-02-23T12:28:31;22.83;;;12.17;;
71317;SDS011;59106;44.706;18.310;2024-02-23T12:31:00;21.42;;;9.75;;
71317;SDS011;59106;44.706;18.310;2024-02-23T12:33:31;23.15;;;8.98;;
71317;SDS011;59106;44.706;18.310;2024-02-23T12:36:00;22.83;;;11.07;;
71317;SDS011;59106;44.706;18.310;2024-02-23T12:38:26;23.05;;;11.15;;
71317;SDS011;59106;44.706;18.310;2024-02-23T12:40:52;22.13;;;10.05;;
71317;SDS011;59106;44.706;18.310;2024-02-23T12:43:18;18.85;;;9.73;;
71317;SDS011;59106;44.706;18.310;2024-02-23T12:45:47;27.80;;;13.52;;
71317;SDS011;59106;44.706;18.310;2024-02-23T12:48:21;16.83;;;8.80;;
71317;SDS011;59106;44.706;18.310;2024-02-23T12:50:54;26.23;;;14.67;;
71317;SDS011;59106;44.706;18.310;2024-02-23T12:55:57;22.02;;;12.38;;
71317;SDS011;59106;44.706;18.310;2024-02-23T12:58:25;27.80;;;14.70;;
71317;SDS011;59106;44.706;18.310;2024-02-23T13:00:54;19.52;;;11.77;;
71317;SDS011;59106;44.706;18.310;2024-02-23T13:03:28;27.40;;;14.43;;
71317;SDS011;59106;44.706;18.310;2024-02-23T13:05:56;25.40;;;14.98;;
71317;SDS011;59106;44.706;18.310;2024-02-23T13:08:23;17.20;;;8.50;;
71317;SDS011;59106;44.706;18.310;2024-02-23T13:10:49;21.67;;;11.07;;
71317;SDS011;59106;44.706;18.310;2024-02-23T13:13:15;31.05;;;18.25;;
71317;SDS011;59106;44.706;18.310;2024-02-23T13:15:46;27.52;;;15.85;;
71317;SDS011;59106;44.706;18.310;2024-02-23T13:18:12;17.02;;;9.98;;
71317;SDS011;59106;44.706;18.310;2024-02-23T13:20:38;22.17;;;12.63;;
71317;SDS011;59106;44.706;18.310;2024-02-23T13:23:05;16.83;;;9.73;;
71317;SDS011;59106;44.706;18.310;2024-02-23T13:25:33;19.10;;;10.32;;
71317;SDS011;59106;44.706;18.310;2024-02-23T13:27:59;18.88;;;9.95;;
71317;SDS011;59106;44.706;18.310;2024-02-23T13:30:25;13.20;;;7.80;;
71317;SDS011;59106;44.706;18.310;2024-02-23T13:32:51;15.70;;;8.70;;
71317;SDS011;59106;44.706;18.310;2024-02-23T13:35:18;19.95;;;10.30;;
71317;SDS011;59106;44.706;18.310;2024-02-23T13:37:44;16.50;;;8.57;;
71317;SDS011;59106;44.706;18.310;2024-02-23T13:40:10;19.80;;;10.75;;
71317;SDS011;59106;44.706;18.310;2024-02-23T13:42:37;21.83;;;8.93;;
71317;SDS011;59106;44.706;18.310;2024-02-23T13:45:06;17.10;;;8.40;;
71317;SDS011;59106;44.706;18.310;2024-02-23T13:47:32;15.90;;;9.30;;
71317;SDS011;59106;44.706;18.310;2024-02-23T13:49:59;17.42;;;9.65;;
71317;SDS011;59106;44.706;18.310;2024-02-23T13:52:25;21.60;;;11.95;;
71317;SDS011;59106;44.706;18.310;2024-02-23T13:54:51;18.83;;;10.60;;
71317;SDS011;59106;44.706;18.310;2024-02-23T13:57:17;16.70;;;9.30;;
71317;SDS011;59106;44.706;18.310;2024-02-23T13:59:43;14.85;;;7.90;;
71317;SDS011;59106;44.706;18.310;2024-02-23T14:02:09;15.57;;;7.77;;
71317;SDS011;59106;44.706;18.310;2024-02-23T14:04:35;15.00;;;7.90;;
71317;SDS011;59106;44.706;18.310;2024-02-23T14:07:01;13.77;;;7.57;;
71317;SDS011;59106;44.706;18.310;2024-02-23T14:09:27;16.10;;;8.10;;
71317;SDS011;59106;44.706;18.310;2024-02-23T14:11:53;16.30;;;9.45;;
71317;SDS011;59106;44.706;18.310;2024-02-23T14:14:19;17.52;;;9.48;;
71317;SDS011;59106;44.706;18.310;2024-02-23T14:16:46;16.98;;;8.13;;
71317;SDS011;59106;44.706;18.310;2024-02-23T14:19:12;9.35;;;5.05;;